Time;durP1;ratioP1;P1;durP2;ratioP2;P2;SDS_P1;SDS_P2;PMS_P1;PMS_P2;Temp;Humidity;BMP_temperature;BMP_pressure;BME280_temperature;BME280_humidity;BME280_pressure;Samples;Min_cycle;Max_cycle;Signal;HPM_P1;HPM_P2
2022/03/01 00:01:36;;;;;;;4.30;3.90;;;;;;;;;;4979218;28;20322;-50
2022/03/01 00:04:04;;;;;;;4.22;3.83;;;;;;;;;;4979304;28;20557;-50
2022/03/01 00:06:31;;;;;;;3.90;3.55;;;;;;;;;;4979655;28;20298;-50
2022/03/01 00:08:59;;;;;;;3.80;3.50;;;;;;;;;;4979236;28;20239;-50
2022/03/01 00:11:27;;;;;;;3.95;3.55;;;;;;;;;;4979513;28;20239;-50
2022/03/01 00:13:54;;;;;;;3.60;3.30;;;;;;;;;;4980106;28;20282;-50
2022/03/01 00:16:22;;;;;;;3.92;3.55;;;;;;;;;;4979713;28;20258;-50
2022/03/01 00:18:49;;;;;;;3.90;3.53;;;;;;;;;;4979549;28;20313;-50
2022/03/01 00:21:16;;;;;;;4.15;3.47;;;;;;;;;;4979326;28;20293;-50
2022/03/01 00:23:43;;;;;;;3.40;3.10;;;;;;;;;;4979925;28;20252;-50
2022/03/01 00:26:11;;;;;;;3.92;3.38;;;;;;;;;;4980216;28;20270;-50
2022/03/01 00:28:40;;;;;;;3.78;3.28;;;;;;;;;;4980835;28;20275;-50
2022/03/01 00:31:07;;;;;;;3.95;3.35;;;;;;;;;;4980265;28;20286;-50
2022/03/01 00:33:35;;;;;;;3.63;3.28;;;;;;;;;;4980847;28;20450;-50
2022/03/01 00:36:02;;;;;;;4.00;3.40;;;;;;;;;;4980340;28;20485;-50
2022/03/01 00:38:29;;;;;;;4.30;3.40;;;;;;;;;;4980476;28;20567;-50
2022/03/01 00:40:57;;;;;;;3.83;3.53;;;;;;;;;;4979921;28;20638;-50
2022/03/01 00:43:24;;;;;;;3.90;3.28;;;;;;;;;;4979965;28;20215;-50
2022/03/01 00:45:54;;;;;;;3.53;3.22;;;;;;;;;;4980216;28;20269;-50
2022/03/01 00:48:22;;;;;;;3.58;3.25;;;;;;;;;;4980464;28;20204;-50
2022/03/01 00:50:49;;;;;;;3.63;3.00;;;;;;;;;;4980137;28;20207;-50
2022/03/01 00:53:16;;;;;;;3.10;2.80;;;;;;;;;;4980348;28;20544;-50
2022/03/01 00:55:44;;;;;;;3.38;3.08;;;;;;;;;;4980033;28;20659;-50
2022/03/01 00:58:11;;;;;;;3.55;3.25;;;;;;;;;;4980227;28;20228;-50
2022/03/01 01:00:39;;;;;;;3.50;3.20;;;;;;;;;;4980073;28;20208;-50
2022/03/01 01:03:08;;;;;;;4.57;3.35;;;;;;;;;;4979405;28;20207;-50
2022/03/01 01:05:35;;;;;;;3.65;3.28;;;;;;;;;;4979489;28;20218;-50
2022/03/01 01:08:02;;;;;;;3.50;3.20;;;;;;;;;;4979841;28;20266;-50
2022/03/01 01:10:30;;;;;;;3.35;3.05;;;;;;;;;;4980031;28;20212;-50
2022/03/01 01:12:58;;;;;;;3.40;3.10;;;;;;;;;;4979902;28;20274;-50
2022/03/01 01:15:25;;;;;;;3.38;3.08;;;;;;;;;;4979974;28;20219;-50
2022/03/01 01:17:52;;;;;;;3.25;2.95;;;;;;;;;;4980020;28;20223;-50
2022/03/01 01:20:21;;;;;;;3.33;3.03;;;;;;;;;;4979770;28;20216;-50
2022/03/01 01:22:49;;;;;;;3.10;2.80;;;;;;;;;;4979093;28;20251;-50
2022/03/01 01:25:17;;;;;;;3.40;3.08;;;;;;;;;;4979642;28;20230;-50
2022/03/01 01:27:46;;;;;;;3.50;3.20;;;;;;;;;;4979376;28;20255;-50
2022/03/01 01:30:15;;;;;;;3.13;2.83;;;;;;;;;;4978931;28;20676;-49
2022/03/01 01:32:43;;;;;;;3.55;3.25;;;;;;;;;;4979342;28;20219;-50
2022/03/01 01:35:11;;;;;;;3.40;3.10;;;;;;;;;;4979510;28;20216;-50
2022/03/01 01:37:40;;;;;;;3.50;3.20;;;;;;;;;;4979241;28;20219;-50
2022/03/01 01:40:12;;;;;;;3.38;3.08;;;;;;;;;;4979472;28;20208;-50
2022/03/01 01:42:39;;;;;;;3.08;2.85;;;;;;;;;;4979410;28;20207;-50
2022/03/01 01:45:07;;;;;;;3.20;2.90;;;;;;;;;;4979072;28;20274;-50
2022/03/01 01:47:35;;;;;;;3.25;2.95;;;;;;;;;;4979279;28;20227;-50
2022/03/01 01:50:02;;;;;;;3.83;3.30;;;;;;;;;;4978932;28;20282;-50
2022/03/01 01:52:30;;;;;;;3.35;3.03;;;;;;;;;;4978973;28;20215;-50
2022/03/01 01:54:58;;;;;;;3.65;3.35;;;;;;;;;;4979190;28;20274;-50
2022/03/01 01:57:26;;;;;;;3.38;3.00;;;;;;;;;;4978469;28;20290;-50
2022/03/01 01:59:54;;;;;;;3.53;3.00;;;;;;;;;;4979221;28;20235;-50
2022/03/01 02:02:22;;;;;;;3.00;2.70;;;;;;;;;;4979127;28;20208;-50
2022/03/01 02:04:49;;;;;;;3.38;3.08;;;;;;;;;;4978808;28;20274;-50
2022/03/01 02:07:17;;;;;;;3.38;3.03;;;;;;;;;;4978829;28;20239;-50
2022/03/01 02:09:45;;;;;;;3.83;3.35;;;;;;;;;;4978845;28;20510;-50
2022/03/01 02:12:14;;;;;;;3.00;2.80;;;;;;;;;;4978767;28;20215;-50
2022/03/01 02:14:41;;;;;;;3.42;2.92;;;;;;;;;;4978862;28;20642;-50
2022/03/01 02:17:10;;;;;;;3.38;3.08;;;;;;;;;;4978631;28;20222;-50
2022/03/01 02:19:38;;;;;;;3.38;3.03;;;;;;;;;;4978481;28;20294;-50
2022/03/01 02:22:08;;;;;;;3.40;2.97;;;;;;;;;;4978399;28;20218;-50
2022/03/01 02:24:36;;;;;;;3.28;2.92;;;;;;;;;;4978158;28;20220;-50
2022/03/01 02:27:04;;;;;;;3.75;3.20;;;;;;;;;;4978612;28;20207;-50
2022/03/01 02:29:32;;;;;;;3.50;3.20;;;;;;;;;;4978227;28;20211;-50
2022/03/01 02:32:00;;;;;;;3.33;3.03;;;;;;;;;;4978203;28;20215;-50
2022/03/01 02:34:27;;;;;;;3.45;3.10;;;;;;;;;;4978312;28;20274;-50
2022/03/01 02:36:55;;;;;;;3.80;3.25;;;;;;;;;;4978657;28;20208;-50
2022/03/01 02:39:23;;;;;;;3.08;2.78;;;;;;;;;;4978565;28;20558;-50
2022/03/01 02:41:51;;;;;;;3.40;3.10;;;;;;;;;;4978574;28;20297;-50
2022/03/01 02:44:18;;;;;;;3.15;2.85;;;;;;;;;;4978388;28;20554;-50
2022/03/01 02:46:46;;;;;;;3.38;2.92;;;;;;;;;;4978606;28;20215;-50
2022/03/01 02:49:13;;;;;;;3.50;3.20;;;;;;;;;;4978590;28;20262;-50
2022/03/01 02:51:41;;;;;;;3.13;2.83;;;;;;;;;;4977898;28;20266;-50
2022/03/01 02:54:08;;;;;;;3.47;3.10;;;;;;;;;;4978564;28;20579;-50
2022/03/01 02:56:39;;;;;;;3.30;3.00;;;;;;;;;;4978507;28;20240;-50
2022/03/01 02:59:06;;;;;;;3.30;3.00;;;;;;;;;;4978043;28;20231;-50
2022/03/01 03:01:34;;;;;;;3.13;2.83;;;;;;;;;;4978318;28;20243;-50
2022/03/01 03:04:02;;;;;;;3.40;3.10;;;;;;;;;;4977841;28;20587;-50
2022/03/01 03:06:29;;;;;;;3.88;3.13;;;;;;;;;;4978016;28;20654;-50
2022/03/01 03:08:56;;;;;;;3.28;3.00;;;;;;;;;;4978249;28;20270;-50
2022/03/01 03:11:23;;;;;;;3.03;2.72;;;;;;;;;;4978066;28;20274;-50
2022/03/01 03:13:53;;;;;;;3.92;3.38;;;;;;;;;;4978204;28;20218;-50
2022/03/01 03:16:20;;;;;;;3.17;2.88;;;;;;;;;;4977985;28;20211;-50
2022/03/01 03:18:47;;;;;;;3.65;3.10;;;;;;;;;;4958945;29;20232;-50
2022/03/01 03:21:15;;;;;;;3.10;2.90;;;;;;;;;;4958769;28;20287;-50
2022/03/01 03:23:42;;;;;;;3.30;2.95;;;;;;;;;;4958593;28;20314;-50
2022/03/01 03:26:09;;;;;;;3.33;3.03;;;;;;;;;;4958740;29;20208;-50
2022/03/01 03:28:37;;;;;;;3.78;3.38;;;;;;;;;;4959471;28;20259;-50
2022/03/01 03:31:06;;;;;;;3.30;3.00;;;;;;;;;;4962244;28;20216;-50
2022/03/01 03:33:33;;;;;;;3.17;2.88;;;;;;;;;;4962422;29;20271;-50
2022/03/01 03:36:00;;;;;;;3.80;3.40;;;;;;;;;;4962360;29;20573;-50
2022/03/01 03:38:28;;;;;;;3.60;3.30;;;;;;;;;;4961884;29;20239;-50
2022/03/01 03:40:56;;;;;;;2.95;2.75;;;;;;;;;;4962324;29;20283;-50
2022/03/01 03:43:23;;;;;;;3.22;2.92;;;;;;;;;;4962618;28;20216;-50
2022/03/01 03:45:51;;;;;;;3.40;3.10;;;;;;;;;;4976970;28;20204;-50
2022/03/01 03:48:19;;;;;;;3.58;3.10;;;;;;;;;;4981071;28;20219;-50
2022/03/01 03:50:46;;;;;;;3.38;3.08;;;;;;;;;;4981397;28;20208;-50
2022/03/01 03:53:14;;;;;;;3.78;3.47;;;;;;;;;;4981253;28;20348;-50
2022/03/01 03:55:41;;;;;;;3.40;3.10;;;;;;;;;;4980795;28;20274;-50
2022/03/01 03:58:08;;;;;;;3.88;3.15;;;;;;;;;;4981253;28;20215;-50
2022/03/01 04:00:36;;;;;;;3.50;3.20;;;;;;;;;;4980816;28;20228;-50
2022/03/01 04:03:03;;;;;;;3.42;3.03;;;;;;;;;;4980730;28;20505;-51
2022/03/01 04:05:32;;;;;;;3.33;3.03;;;;;;;;;;4980744;28;20271;-50
2022/03/01 04:07:59;;;;;;;3.45;3.10;;;;;;;;;;4980887;28;20208;-50
2022/03/01 04:10:27;;;;;;;3.28;2.97;;;;;;;;;;4980764;28;20266;-50
2022/03/01 04:12:54;;;;;;;3.70;3.40;;;;;;;;;;4980676;28;20653;-50
2022/03/01 04:15:21;;;;;;;3.40;3.10;;;;;;;;;;4980842;28;20625;-50
2022/03/01 04:17:49;;;;;;;3.30;3.00;;;;;;;;;;4979733;28;20279;-50
2022/03/01 04:20:18;;;;;;;3.95;3.00;;;;;;;;;;4980395;28;20246;-50
2022/03/01 04:22:47;;;;;;;3.35;3.03;;;;;;;;;;4980738;28;20244;-50
2022/03/01 04:25:14;;;;;;;3.67;3.38;;;;;;;;;;4980277;28;20595;-50
2022/03/01 04:27:42;;;;;;;3.72;3.42;;;;;;;;;;4980696;28;20216;-50
2022/03/01 04:30:11;;;;;;;3.25;2.95;;;;;;;;;;4980090;28;20203;-50
2022/03/01 04:32:38;;;;;;;3.35;3.00;;;;;;;;;;4979407;28;20214;-50
2022/03/01 04:35:08;;;;;;;3.40;3.10;;;;;;;;;;4980296;28;20208;-50
2022/03/01 04:37:35;;;;;;;3.40;3.10;;;;;;;;;;4980210;28;20211;-50
2022/03/01 04:40:04;;;;;;;3.13;2.83;;;;;;;;;;4978703;28;20232;-50
2022/03/01 04:42:31;;;;;;;3.70;3.40;;;;;;;;;;4980576;28;20212;-50
2022/03/01 04:44:59;;;;;;;3.75;2.97;;;;;;;;;;4980118;28;20278;-50
2022/03/01 04:47:26;;;;;;;3.47;3.17;;;;;;;;;;4980007;28;20212;-50
2022/03/01 04:49:54;;;;;;;3.40;3.10;;;;;;;;;;4980062;28;20212;-50
2022/03/01 04:52:22;;;;;;;3.63;3.22;;;;;;;;;;4979465;28;20282;-50
2022/03/01 04:54:50;;;;;;;3.30;3.00;;;;;;;;;;4979726;28;20576;-50
2022/03/01 04:57:18;;;;;;;3.60;3.25;;;;;;;;;;4979787;28;20214;-50
2022/03/01 04:59:46;;;;;;;3.47;3.17;;;;;;;;;;4979920;28;20303;-50
2022/03/01 05:02:13;;;;;;;3.75;3.45;;;;;;;;;;4979643;28;20516;-50
2022/03/01 05:04:41;;;;;;;3.50;3.20;;;;;;;;;;4979118;28;20208;-50
2022/03/01 05:07:08;;;;;;;3.15;2.85;;;;;;;;;;4979329;28;20215;-50
2022/03/01 05:09:35;;;;;;;3.47;3.17;;;;;;;;;;4979070;28;20208;-50
2022/03/01 05:12:03;;;;;;;3.25;2.95;;;;;;;;;;4979494;28;20207;-50
2022/03/01 05:14:33;;;;;;;3.40;3.10;;;;;;;;;;4979174;28;20215;-50
2022/03/01 05:17:00;;;;;;;3.17;2.90;;;;;;;;;;4978800;28;20204;-50
2022/03/01 05:19:29;;;;;;;3.10;2.80;;;;;;;;;;4978413;28;20238;-50
2022/03/01 05:21:58;;;;;;;3.15;2.88;;;;;;;;;;4977995;28;20612;-50
2022/03/01 05:24:27;;;;;;;3.78;3.47;;;;;;;;;;4978950;28;20490;-50
2022/03/01 05:26:54;;;;;;;3.50;3.20;;;;;;;;;;4978372;28;20235;-50
2022/03/01 05:29:21;;;;;;;3.50;3.20;;;;;;;;;;4978128;28;20535;-50
2022/03/01 05:31:50;;;;;;;3.30;3.00;;;;;;;;;;4977837;28;20208;-50
2022/03/01 05:34:18;;;;;;;3.45;3.15;;;;;;;;;;4977658;28;20266;-50
2022/03/01 05:36:45;;;;;;;3.60;3.30;;;;;;;;;;4977860;28;20204;-50
2022/03/01 05:39:13;;;;;;;3.50;3.20;;;;;;;;;;4978431;28;20526;-50
2022/03/01 05:41:40;;;;;;;3.38;3.08;;;;;;;;;;4978285;28;20208;-50
2022/03/01 05:44:07;;;;;;;3.20;2.90;;;;;;;;;;4977703;28;20208;-50
2022/03/01 05:46:36;;;;;;;3.75;3.38;;;;;;;;;;4976951;28;20218;-50
2022/03/01 05:49:05;;;;;;;3.40;3.10;;;;;;;;;;4977713;28;20208;-50
2022/03/01 05:51:32;;;;;;;3.63;3.22;;;;;;;;;;4976757;28;20852;-50
2022/03/01 05:53:59;;;;;;;3.63;3.22;;;;;;;;;;4976704;28;20521;-50
2022/03/01 05:56:27;;;;;;;3.22;2.92;;;;;;;;;;4976820;28;20203;-50
2022/03/01 05:58:54;;;;;;;3.40;3.10;;;;;;;;;;4975660;28;20211;-50
2022/03/01 06:01:21;;;;;;;3.53;3.22;;;;;;;;;;4976878;28;20282;-50
2022/03/01 06:03:49;;;;;;;3.33;3.03;;;;;;;;;;4976247;28;20207;-50
2022/03/01 06:06:18;;;;;;;3.58;3.10;;;;;;;;;;4976538;28;20259;-50
2022/03/01 06:08:45;;;;;;;3.60;3.30;;;;;;;;;;4976196;28;20633;-50
2022/03/01 06:11:13;;;;;;;3.78;3.38;;;;;;;;;;4975475;28;20211;-50
2022/03/01 06:13:43;;;;;;;3.47;3.17;;;;;;;;;;4975502;28;20207;-50
2022/03/01 06:16:10;;;;;;;3.35;3.05;;;;;;;;;;4975661;28;20302;-50
2022/03/01 06:18:38;;;;;;;3.35;3.05;;;;;;;;;;4975357;28;20613;-50
2022/03/01 06:21:05;;;;;;;3.72;3.13;;;;;;;;;;4975343;28;20262;-50
2022/03/01 06:23:34;;;;;;;3.47;3.17;;;;;;;;;;4974940;28;20232;-50
2022/03/01 06:26:01;;;;;;;3.22;2.92;;;;;;;;;;4975300;28;20572;-50
2022/03/01 06:28:29;;;;;;;3.28;2.97;;;;;;;;;;4975356;28;20236;-50
2022/03/01 06:30:56;;;;;;;3.75;3.40;;;;;;;;;;4975796;28;20195;-50
2022/03/01 06:33:23;;;;;;;3.47;3.17;;;;;;;;;;4975659;28;20528;-50
2022/03/01 06:35:50;;;;;;;3.50;3.20;;;;;;;;;;4975203;28;20219;-50
2022/03/01 06:38:18;;;;;;;3.67;3.30;;;;;;;;;;4975734;28;20212;-50
2022/03/01 06:40:48;;;;;;;3.50;3.20;;;;;;;;;;4975397;28;20294;-50
2022/03/01 06:43:15;;;;;;;3.53;3.22;;;;;;;;;;4975088;28;20217;-50
2022/03/01 06:45:42;;;;;;;3.40;3.10;;;;;;;;;;4975175;28;20215;-50
2022/03/01 06:48:10;;;;;;;4.10;3.60;;;;;;;;;;4975669;28;20282;-50
2022/03/01 06:50:37;;;;;;;3.60;3.30;;;;;;;;;;4975763;28;20200;-50
2022/03/01 06:53:04;;;;;;;3.50;3.20;;;;;;;;;;4974946;28;20196;-50
2022/03/01 06:55:32;;;;;;;3.50;3.20;;;;;;;;;;4975635;28;20701;-50
2022/03/01 06:58:01;;;;;;;3.88;3.35;;;;;;;;;;4975358;28;20208;-50
2022/03/01 07:00:28;;;;;;;3.40;3.10;;;;;;;;;;4975432;28;20227;-50
2022/03/01 07:02:55;;;;;;;3.75;3.28;;;;;;;;;;4974363;28;20254;-50
2022/03/01 07:05:23;;;;;;;3.42;3.13;;;;;;;;;;4979545;28;20208;-50
2022/03/01 07:07:51;;;;;;;3.22;2.92;;;;;;;;;;4978758;28;20246;-50
2022/03/01 07:10:18;;;;;;;3.50;3.20;;;;;;;;;;4979319;28;20278;-50
2022/03/01 07:12:47;;;;;;;3.38;3.08;;;;;;;;;;4979681;28;20633;-50
2022/03/01 07:15:16;;;;;;;3.38;3.00;;;;;;;;;;4980142;28;20212;-49
2022/03/01 07:17:43;;;;;;;4.13;3.72;;;;;;;;;;4979998;28;20216;-50
2022/03/01 07:20:11;;;;;;;3.38;3.00;;;;;;;;;;4978976;28;20290;-50
2022/03/01 07:22:39;;;;;;;3.58;3.28;;;;;;;;;;4979127;28;20231;-50
2022/03/01 07:25:06;;;;;;;3.83;3.45;;;;;;;;;;4978923;28;20203;-50
2022/03/01 07:27:34;;;;;;;3.47;3.17;;;;;;;;;;4979817;28;20725;-50
2022/03/01 07:30:01;;;;;;;3.55;3.25;;;;;;;;;;4979289;28;20279;-50
2022/03/01 07:32:30;;;;;;;3.55;3.25;;;;;;;;;;4978771;28;20200;-50
2022/03/01 07:34:57;;;;;;;3.50;3.20;;;;;;;;;;4979165;28;20262;-50
2022/03/01 07:37:24;;;;;;;3.63;3.33;;;;;;;;;;4979278;28;20207;-50
2022/03/01 07:39:55;;;;;;;3.50;3.20;;;;;;;;;;4978578;28;20223;-50
2022/03/01 07:42:22;;;;;;;3.53;3.22;;;;;;;;;;4978621;28;20274;-50
2022/03/01 07:44:49;;;;;;;3.75;3.13;;;;;;;;;;4979796;28;20223;-50
2022/03/01 07:47:17;;;;;;;3.55;3.25;;;;;;;;;;4979192;28;20582;-50
2022/03/01 07:49:47;;;;;;;3.97;3.58;;;;;;;;;;4978468;28;20223;-50
2022/03/01 07:52:14;;;;;;;3.53;3.22;;;;;;;;;;4978959;28;20208;-50
2022/03/01 07:54:41;;;;;;;3.80;3.50;;;;;;;;;;4979382;28;20208;-50
2022/03/01 07:57:08;;;;;;;3.85;3.45;;;;;;;;;;4978452;28;20200;-50
2022/03/01 07:59:36;;;;;;;3.80;3.50;;;;;;;;;;4977632;28;20256;-50
2022/03/01 08:02:04;;;;;;;4.07;3.58;;;;;;;;;;4978711;28;20218;-50
2022/03/01 08:04:31;;;;;;;3.65;3.10;;;;;;;;;;4979066;28;20270;-50
2022/03/01 08:07:00;;;;;;;5.10;3.63;;;;;;;;;;4978091;28;20274;-50
2022/03/01 08:09:27;;;;;;;3.30;3.00;;;;;;;;;;4977520;28;20267;-50
2022/03/01 08:11:54;;;;;;;4.55;3.50;;;;;;;;;;4977576;28;20216;-50
2022/03/01 08:14:22;;;;;;;3.72;3.40;;;;;;;;;;4977060;28;20282;-50
2022/03/01 08:16:49;;;;;;;5.18;3.38;;;;;;;;;;4976967;28;20215;-50
2022/03/01 08:19:17;;;;;;;3.60;3.30;;;;;;;;;;4979106;28;20512;-50
2022/03/01 08:21:44;;;;;;;3.80;3.38;;;;;;;;;;4976848;28;20352;-50
2022/03/01 08:24:13;;;;;;;3.65;3.35;;;;;;;;;;4977491;28;20686;-50
2022/03/01 08:26:40;;;;;;;4.68;3.85;;;;;;;;;;4978244;28;20271;-50
2022/03/01 08:29:08;;;;;;;4.05;3.25;;;;;;;;;;4977633;28;20216;-50
2022/03/01 08:31:36;;;;;;;3.50;3.20;;;;;;;;;;4977824;28;20204;-50
2022/03/01 08:34:03;;;;;;;3.33;3.03;;;;;;;;;;4976899;28;20208;-50
2022/03/01 08:36:30;;;;;;;3.92;3.45;;;;;;;;;;4976312;28;20274;-50
2022/03/01 08:38:58;;;;;;;5.03;4.10;;;;;;;;;;4976820;28;20208;-50
2022/03/01 08:41:27;;;;;;;4.40;3.55;;;;;;;;;;4977074;28;20231;-50
2022/03/01 08:43:54;;;;;;;3.90;3.50;;;;;;;;;;4977343;28;20211;-50
2022/03/01 08:46:23;;;;;;;4.35;3.30;;;;;;;;;;4977082;28;20238;-50
2022/03/01 08:48:53;;;;;;;4.00;3.40;;;;;;;;;;4977410;28;20212;-50
2022/03/01 08:51:21;;;;;;;3.90;3.17;;;;;;;;;;4976839;28;20211;-50
2022/03/01 08:53:48;;;;;;;4.28;3.38;;;;;;;;;;4977005;28;20203;-50
2022/03/01 08:56:16;;;;;;;3.65;3.25;;;;;;;;;;4976705;28;20210;-50
2022/03/01 08:58:45;;;;;;;4.38;3.63;;;;;;;;;;4976693;28;20616;-50
2022/03/01 09:01:12;;;;;;;4.22;3.63;;;;;;;;;;4977006;28;20294;-50
2022/03/01 09:03:40;;;;;;;3.63;3.30;;;;;;;;;;4977192;28;20211;-50
2022/03/01 09:06:07;;;;;;;3.65;3.30;;;;;;;;;;4977030;28;20208;-50
2022/03/01 09:08:35;;;;;;;3.72;3.22;;;;;;;;;;4975787;28;20216;-50
2022/03/01 09:11:03;;;;;;;3.40;3.10;;;;;;;;;;4976079;28;20222;-50
2022/03/01 09:13:30;;;;;;;4.70;3.20;;;;;;;;;;4974967;28;20220;-50
2022/03/01 09:15:59;;;;;;;3.80;3.40;;;;;;;;;;4976379;28;20242;-50
2022/03/01 09:18:26;;;;;;;3.65;3.15;;;;;;;;;;4977027;28;20263;-50
2022/03/01 09:20:53;;;;;;;3.20;2.90;;;;;;;;;;4976064;28;20294;-50
2022/03/01 09:23:21;;;;;;;4.40;3.15;;;;;;;;;;4976172;28;20231;-50
2022/03/01 09:25:48;;;;;;;3.85;3.10;;;;;;;;;;4976671;28;20211;-50
2022/03/01 09:28:17;;;;;;;3.65;2.90;;;;;;;;;;4976937;28;20208;-50
2022/03/01 09:30:44;;;;;;;3.40;3.10;;;;;;;;;;4975627;28;20590;-50
2022/03/01 09:33:13;;;;;;;3.55;2.80;;;;;;;;;;4976102;28;20274;-50
2022/03/01 09:35:40;;;;;;;3.47;3.00;;;;;;;;;;4976053;28;20563;-50
2022/03/01 09:38:08;;;;;;;3.55;2.70;;;;;;;;;;4976486;28;20207;-50
2022/03/01 09:40:35;;;;;;;4.50;3.15;;;;;;;;;;4976118;28;20231;-50
2022/03/01 09:43:03;;;;;;;3.40;3.00;;;;;;;;;;4975402;28;20219;-50
2022/03/01 09:45:30;;;;;;;4.43;3.10;;;;;;;;;;4976018;28;20282;-50
2022/03/01 09:47:57;;;;;;;3.28;2.97;;;;;;;;;;4975750;28;20212;-50
2022/03/01 09:50:29;;;;;;;3.40;2.80;;;;;;;;;;4975756;28;20207;-50
2022/03/01 09:52:57;;;;;;;3.67;3.30;;;;;;;;;;4976140;28;20211;-50
2022/03/01 09:55:25;;;;;;;3.97;3.05;;;;;;;;;;4976081;28;20211;-50
2022/03/01 09:57:52;;;;;;;3.10;2.85;;;;;;;;;;4975492;28;20211;-50
2022/03/01 10:00:19;;;;;;;3.80;2.83;;;;;;;;;;4975579;28;20270;-50
2022/03/01 10:02:47;;;;;;;3.88;2.90;;;;;;;;;;4975853;28;20255;-50
2022/03/01 10:05:15;;;;;;;4.50;3.47;;;;;;;;;;4975427;28;20274;-50
2022/03/01 10:07:45;;;;;;;3.90;2.90;;;;;;;;;;4975636;28;20294;-50
2022/03/01 10:10:16;;;;;;;4.55;3.13;;;;;;;;;;4975653;28;20216;-50
2022/03/01 10:12:44;;;;;;;3.25;2.95;;;;;;;;;;4975746;28;20212;-50
2022/03/01 10:15:13;;;;;;;3.30;3.00;;;;;;;;;;4975786;28;20204;-50
2022/03/01 10:17:41;;;;;;;3.63;2.92;;;;;;;;;;4974776;28;20274;-50
2022/03/01 10:20:11;;;;;;;3.10;2.80;;;;;;;;;;4975058;28;20259;-50
2022/03/01 10:22:39;;;;;;;3.40;2.83;;;;;;;;;;4974722;28;20227;-50
2022/03/01 10:25:09;;;;;;;4.30;3.10;;;;;;;;;;4974966;28;20230;-50
2022/03/01 10:27:36;;;;;;;3.00;2.80;;;;;;;;;;4975330;28;20216;-50
2022/03/01 10:30:05;;;;;;;3.08;2.80;;;;;;;;;;4974688;28;20274;-50
2022/03/01 10:32:32;;;;;;;2.97;2.67;;;;;;;;;;4974999;28;20211;-50
2022/03/01 10:35:00;;;;;;;3.28;2.95;;;;;;;;;;4974400;28;20278;-50
2022/03/01 10:37:29;;;;;;;2.83;2.63;;;;;;;;;;4974200;28;20215;-50
2022/03/01 10:40:11;;;;;;;3.78;2.97;;;;;;;;;;4975192;28;20203;-50
2022/03/01 10:42:40;;;;;;;3.45;2.75;;;;;;;;;;4975476;28;20239;-50
2022/03/01 10:45:09;;;;;;;3.50;2.90;;;;;;;;;;4974864;28;20262;-49
2022/03/01 10:47:37;;;;;;;3.28;2.97;;;;;;;;;;4974105;28;20215;-50
2022/03/01 10:50:05;;;;;;;3.20;2.75;;;;;;;;;;4973900;28;20289;-50
2022/03/01 10:52:33;;;;;;;4.63;3.10;;;;;;;;;;4974442;28;20266;-50
2022/03/01 10:55:01;;;;;;;3.22;2.90;;;;;;;;;;4974611;28;20239;-50
2022/03/01 10:57:28;;;;;;;3.10;2.80;;;;;;;;;;4975091;28;20207;-50
2022/03/01 10:59:57;;;;;;;5.10;3.15;;;;;;;;;;4974383;28;20203;-50
2022/03/01 11:02:24;;;;;;;3.00;2.65;;;;;;;;;;4974154;28;20279;-50
2022/03/01 11:04:53;;;;;;;3.25;2.80;;;;;;;;;;4974379;28;20298;-50
2022/03/01 11:07:21;;;;;;;3.15;2.85;;;;;;;;;;4974850;28;20261;-50
2022/03/01 11:09:48;;;;;;;2.85;2.55;;;;;;;;;;4974714;28;20199;-50
2022/03/01 11:12:21;;;;;;;3.10;2.80;;;;;;;;;;4974656;28;20667;-50
2022/03/01 11:14:57;;;;;;;3.40;2.70;;;;;;;;;;4974919;28;20208;-50
2022/03/01 11:17:30;;;;;;;3.10;2.80;;;;;;;;;;4974646;28;20718;-50
2022/03/01 11:19:59;;;;;;;2.97;2.67;;;;;;;;;;4975409;28;20203;-50
2022/03/01 11:22:27;;;;;;;3.17;2.88;;;;;;;;;;4974530;28;20246;-50
2022/03/01 11:24:54;;;;;;;3.53;2.90;;;;;;;;;;4974379;28;20251;-50
2022/03/01 11:27:23;;;;;;;3.35;2.58;;;;;;;;;;4974915;28;20270;-50
2022/03/01 11:29:50;;;;;;;2.95;2.65;;;;;;;;;;4975346;28;20270;-50
2022/03/01 11:32:18;;;;;;;2.75;2.38;;;;;;;;;;4974542;28;20262;-50
2022/03/01 11:34:47;;;;;;;3.13;2.42;;;;;;;;;;4974585;28;20557;-50
2022/03/01 11:37:16;;;;;;;2.75;2.53;;;;;;;;;;4974008;28;20216;-50
2022/03/01 11:39:44;;;;;;;2.92;2.50;;;;;;;;;;4974675;28;20212;-50
2022/03/01 11:42:14;;;;;;;2.95;2.50;;;;;;;;;;4974178;28;20235;-50
2022/03/01 11:44:45;;;;;;;2.50;2.30;;;;;;;;;;4973124;28;20200;-50
2022/03/01 11:47:24;;;;;;;4.05;2.78;;;;;;;;;;4973852;28;20208;-50
2022/03/01 11:49:52;;;;;;;3.22;2.30;;;;;;;;;;4975747;28;20203;-50
2022/03/01 11:52:21;;;;;;;3.45;2.60;;;;;;;;;;4977666;28;20196;-50
2022/03/01 11:54:50;;;;;;;2.80;2.50;;;;;;;;;;4977610;28;20211;-50
2022/03/01 11:57:23;;;;;;;3.05;2.35;;;;;;;;;;4978703;28;20527;-50
2022/03/01 11:59:51;;;;;;;2.80;2.20;;;;;;;;;;4978119;28;20497;-50
2022/03/01 12:02:19;;;;;;;3.10;2.47;;;;;;;;;;4977358;28;20260;-50
2022/03/01 12:04:48;;;;;;;2.70;2.50;;;;;;;;;;4977367;28;20203;-50
2022/03/01 12:07:21;;;;;;;2.70;2.47;;;;;;;;;;4977789;28;20212;-50
2022/03/01 12:09:56;;;;;;;2.53;2.33;;;;;;;;;;4976831;28;20278;-50
2022/03/01 12:12:32;;;;;;;2.85;2.33;;;;;;;;;;4976861;28;20199;-50
2022/03/01 12:14:59;;;;;;;2.33;2.13;;;;;;;;;;4976795;28;20578;-50
2022/03/01 12:17:26;;;;;;;3.22;2.42;;;;;;;;;;4977825;28;20216;-50
2022/03/01 12:20:00;;;;;;;3.35;2.70;;;;;;;;;;4977203;28;20207;-50
2022/03/01 12:22:29;;;;;;;3.05;2.63;;;;;;;;;;4976119;28;20231;-50
2022/03/01 12:24:58;;;;;;;3.20;2.70;;;;;;;;;;4976719;28;20208;-50
2022/03/01 12:27:30;;;;;;;2.97;2.72;;;;;;;;;;4977106;28;20211;-50
2022/03/01 12:29:59;;;;;;;2.83;2.55;;;;;;;;;;4977265;28;20233;-50
2022/03/01 12:32:27;;;;;;;3.08;2.78;;;;;;;;;;4977087;28;20215;-50
2022/03/01 12:34:58;;;;;;;2.88;2.60;;;;;;;;;;4976770;28;20211;-50
2022/03/01 12:37:28;;;;;;;4.07;2.80;;;;;;;;;;4976391;28;20211;-50
2022/03/01 12:39:57;;;;;;;2.80;2.60;;;;;;;;;;4976769;28;20200;-50
2022/03/01 12:42:27;;;;;;;4.93;2.90;;;;;;;;;;4977208;28;20235;-50
2022/03/01 12:44:55;;;;;;;2.97;2.65;;;;;;;;;;4977115;28;20509;-50
2022/03/01 12:47:22;;;;;;;3.25;2.88;;;;;;;;;;4975496;28;20200;-50
2022/03/01 12:49:50;;;;;;;3.38;3.03;;;;;;;;;;4976134;28;20291;-50
2022/03/01 12:52:19;;;;;;;2.95;2.60;;;;;;;;;;4976683;28;20212;-50
2022/03/01 12:54:48;;;;;;;3.45;2.58;;;;;;;;;;4976304;28;20218;-50
2022/03/01 12:57:17;;;;;;;3.20;2.65;;;;;;;;;;4976004;28;20352;-50
2022/03/01 12:59:47;;;;;;;2.90;2.30;;;;;;;;;;4975857;28;20204;-50
2022/03/01 13:02:16;;;;;;;3.55;2.35;;;;;;;;;;4976069;28;20271;-50
2022/03/01 13:04:49;;;;;;;3.30;2.60;;;;;;;;;;4977020;28;20263;-50
2022/03/01 13:07:17;;;;;;;3.10;2.35;;;;;;;;;;4975748;28;20641;-50
2022/03/01 13:09:44;;;;;;;3.92;2.63;;;;;;;;;;4976035;28;20662;-50
2022/03/01 13:12:12;;;;;;;3.17;2.53;;;;;;;;;;4976222;28;20266;-50
2022/03/01 13:14:40;;;;;;;4.03;2.63;;;;;;;;;;4976045;28;20208;-50
2022/03/01 13:17:08;;;;;;;3.90;2.40;;;;;;;;;;4976578;28;20275;-50
2022/03/01 13:19:36;;;;;;;3.30;2.42;;;;;;;;;;4974963;28;20212;-50
2022/03/01 13:22:05;;;;;;;3.67;2.75;;;;;;;;;;4974997;28;20235;-50
2022/03/01 13:24:34;;;;;;;2.60;2.40;;;;;;;;;;4974164;28;20207;-50
2022/03/01 13:27:03;;;;;;;2.95;2.38;;;;;;;;;;4974685;28;20211;-50
2022/03/01 13:29:33;;;;;;;2.90;2.20;;;;;;;;;;4975189;28;20211;-50
2022/03/01 13:32:07;;;;;;;2.72;2.50;;;;;;;;;;4974819;28;20215;-50
2022/03/01 13:34:34;;;;;;;2.97;2.65;;;;;;;;;;4974928;28;20204;-50
2022/03/01 13:37:01;;;;;;;2.50;2.30;;;;;;;;;;4974786;28;20211;-50
2022/03/01 13:39:29;;;;;;;2.53;2.33;;;;;;;;;;4974517;28;20211;-50
2022/03/01 13:41:59;;;;;;;2.78;2.30;;;;;;;;;;4974318;28;20286;-50
2022/03/01 13:44:27;;;;;;;2.90;2.33;;;;;;;;;;4975259;28;20580;-50
2022/03/01 13:46:56;;;;;;;3.25;2.50;;;;;;;;;;4974272;28;20211;-50
2022/03/01 13:49:29;;;;;;;2.30;2.10;;;;;;;;;;4974905;28;20581;-50
2022/03/01 13:52:14;;;;;;;4.43;2.38;;;;;;;;;;4974077;28;20677;-50
2022/03/01 13:54:42;;;;;;;2.90;2.33;;;;;;;;;;4975180;28;20282;-50
2022/03/01 13:57:10;;;;;;;3.03;2.50;;;;;;;;;;4975295;28;20215;-50
2022/03/01 13:59:38;;;;;;;2.55;2.35;;;;;;;;;;4975009;28;20208;-50
2022/03/01 14:02:05;;;;;;;2.78;2.25;;;;;;;;;;4973903;28;20239;-50
2022/03/01 14:04:34;;;;;;;2.58;2.38;;;;;;;;;;4975430;28;20242;-50
2022/03/01 14:07:01;;;;;;;2.55;2.33;;;;;;;;;;4974268;28;20276;-50
2022/03/01 14:09:28;;;;;;;2.40;2.20;;;;;;;;;;4973879;28;20208;-50
2022/03/01 14:11:57;;;;;;;2.58;1.90;;;;;;;;;;4973877;28;20210;-50
2022/03/01 14:14:25;;;;;;;2.08;1.85;;;;;;;;;;4973221;28;20270;-50
2022/03/01 14:16:52;;;;;;;2.30;2.10;;;;;;;;;;4974790;28;20212;-50
2022/03/01 14:19:20;;;;;;;3.40;2.08;;;;;;;;;;4974472;28;20215;-50
2022/03/01 14:21:49;;;;;;;2.65;2.20;;;;;;;;;;4973917;28;20200;-50
2022/03/01 14:24:18;;;;;;;2.35;2.15;;;;;;;;;;4973606;28;20754;-50
2022/03/01 14:26:45;;;;;;;2.40;2.20;;;;;;;;;;4974141;28;20203;-50
2022/03/01 14:29:13;;;;;;;2.20;1.90;;;;;;;;;;4973672;28;20701;-50
2022/03/01 14:31:41;;;;;;;2.20;2.00;;;;;;;;;;4974823;28;20267;-50
2022/03/01 14:34:09;;;;;;;2.20;2.00;;;;;;;;;;4974290;28;20215;-50
2022/03/01 14:36:36;;;;;;;2.30;2.10;;;;;;;;;;4974499;28;20215;-50
2022/03/01 14:39:06;;;;;;;2.38;2.15;;;;;;;;;;4974402;28;20583;-50
2022/03/01 14:41:33;;;;;;;3.25;2.08;;;;;;;;;;4974384;28;20270;-50
2022/03/01 14:44:00;;;;;;;2.22;2.03;;;;;;;;;;4973788;28;20234;-50
2022/03/01 14:46:28;;;;;;;2.20;2.00;;;;;;;;;;4974403;28;20199;-50
2022/03/01 14:48:55;;;;;;;2.17;1.98;;;;;;;;;;4973670;28;20208;-50